createdAt,value
2022-12-01T00:11:34.786Z,51.27
2022-12-01T00:26:34.960Z,51.90
2022-12-01T00:41:35.558Z,52.00
2022-12-01T00:56:36.159Z,52.00
2022-12-01T01:11:38.057Z,52.31
2022-12-01T01:26:39.977Z,52.86
2022-12-01T01:41:43.018Z,55.99
2022-12-01T01:56:44.244Z,55.40
2022-12-01T02:11:46.671Z,52.99
2022-12-01T02:26:49.003Z,52.23
2022-12-01T02:41:50.981Z,50.67
2022-12-01T02:56:52.792Z,49.94
2022-12-01T03:11:56.991Z,50.35
2022-12-01T03:26:59.339Z,50.25
2022-12-01T03:41:59.985Z,51.09
2022-12-01T03:57:01.075Z,52.47
2022-12-01T04:12:02.198Z,52.03
2022-12-01T04:27:02.804Z,58.64
2022-12-01T04:42:03.379Z,59.16
2022-12-01T04:57:03.514Z,59.58
2022-12-01T05:12:04.145Z,58.24
2022-12-01T05:27:04.359Z,60.44
2022-12-01T05:42:05.464Z,59.50
2022-12-01T05:57:06.550Z,60.23
2022-12-01T06:12:07.196Z,58.66
2022-12-01T06:27:07.339Z,59.70
2022-12-01T06:42:07.915Z,62.11
2022-12-01T06:57:08.612Z,63.37
2022-12-01T07:12:09.175Z,64.51
2022-12-01T07:27:10.321Z,64.73
2022-12-01T07:42:11.652Z,65.14
2022-12-01T07:57:12.269Z,68.57
2022-12-01T08:12:13.961Z,68.88
2022-12-01T08:27:14.158Z,70.48
2022-12-01T08:42:14.475Z,70.45
2022-12-01T08:57:14.658Z,72.43
2022-12-01T09:12:15.176Z,71.77
2022-12-01T09:27:15.304Z,75.12
2022-12-01T09:42:16.006Z,76.89
2022-12-01T09:57:17.171Z,81.03
2022-12-01T10:12:17.133Z,84.69
2022-12-01T10:27:17.972Z,84.31
2022-12-01T10:42:17.946Z,87.45
2022-12-01T10:57:18.319Z,85.42
2022-12-01T11:12:18.457Z,88.87
2022-12-01T11:27:18.698Z,90.95
2022-12-01T11:42:18.703Z,93.57
2022-12-01T11:57:33.659Z,93.10
2022-12-01T12:12:23.948Z,93.73
2022-12-01T12:27:24.531Z,91.54
2022-12-01T12:42:25.188Z,91.54
2022-12-01T12:57:25.774Z,91.43
2022-12-01T13:12:26.407Z,93.10
2022-12-01T13:27:27.020Z,91.33
2022-12-01T13:42:27.648Z,91.22
2022-12-01T13:57:27.758Z,90.64
2022-12-01T14:12:27.895Z,90.43
2022-12-01T14:27:28.481Z,88.34
2022-12-01T14:42:29.136Z,87.19
2022-12-01T14:57:29.760Z,86.46
2022-12-01T15:12:30.612Z,84.79
2022-12-01T15:27:31.611Z,82.81
2022-12-01T15:42:31.745Z,79.61
2022-12-01T15:57:32.362Z,73.34
2022-12-01T16:12:33.448Z,68.15
2022-12-01T16:27:33.587Z,63.13
2022-12-01T16:42:34.233Z,58.24
2022-12-01T16:57:34.329Z,56.75
2022-12-01T17:12:34.495Z,54.79
2022-12-01T17:27:35.127Z,52.28
2022-12-01T17:42:35.232Z,50.82
2022-12-01T17:57:35.406Z,49.15
2022-12-01T18:12:36.059Z,48.72
2022-12-01T18:27:36.654Z,47.78
2022-12-01T18:42:36.782Z,46.95
2022-12-01T18:57:37.453Z,46.42
2022-12-01T19:12:41.196Z,45.61
2022-12-01T19:27:41.612Z,44.65
2022-12-01T19:42:42.963Z,44.44
2022-12-01T19:57:43.087Z,43.60
2022-12-01T20:12:44.541Z,43.52
2022-12-01T20:27:45.084Z,43.21
2022-12-01T20:42:45.837Z,43.41
2022-12-01T20:57:47.425Z,42.99
2022-12-01T21:12:48.790Z,44.78
2022-12-01T21:27:49.424Z,43.83
2022-12-01T21:42:49.899Z,42.99
2022-12-01T21:57:50.492Z,42.47
2022-12-01T22:12:51.675Z,42.68
2022-12-01T22:27:51.439Z,42.68
2022-12-01T22:42:51.680Z,42.24
2022-12-01T22:57:53.804Z,42.66
2022-12-01T23:12:54.777Z,42.26
2022-12-01T23:27:55.909Z,42.24
2022-12-01T23:42:56.525Z,42.14
2022-12-01T23:57:58.165Z,42.14
